Time;durP1;ratioP1;P1;durP2;ratioP2;P2;SDS_P1;SDS_P2;PMS_P1;PMS_P2;Temp;Humidity;BMP_temperature;BMP_pressure;BME280_temperature;BME280_humidity;BME280_pressure;Samples;Min_cycle;Max_cycle;Signal;HPM_P1;HPM_P2
2022/09/08 00:01:50;;;;;;;13.60;7.70;;;;;;;;;;5096780;28;20490;-73
2022/09/08 00:04:17;;;;;;;10.40;8.03;;;;;;;;;;5096182;28;20470;-73
2022/09/08 00:06:46;;;;;;;21.43;8.60;;;;;;;;;;5096037;28;20457;-73
2022/09/08 00:09:13;;;;;;;9.90;7.90;;;;;;;;;;5096370;28;20451;-73
2022/09/08 00:11:40;;;;;;;11.50;8.27;;;;;;;;;;5096286;28;20462;-73
2022/09/08 00:14:08;;;;;;;15.30;8.27;;;;;;;;;;5096430;28;20897;-73
2022/09/08 00:16:35;;;;;;;9.33;7.80;;;;;;;;;;5096235;28;20454;-74
2022/09/08 00:19:03;;;;;;;8.47;7.30;;;;;;;;;;5096434;28;20900;-73
2022/09/08 00:21:30;;;;;;;9.20;7.10;;;;;;;;;;5095950;28;20486;-73
2022/09/08 00:23:58;;;;;;;17.63;7.67;;;;;;;;;;5095612;28;20478;-73
2022/09/08 00:26:25;;;;;;;7.73;6.07;;;;;;;;;;5096070;28;20451;-73
2022/09/08 00:28:53;;;;;;;7.23;6.53;;;;;;;;;;5095916;28;20462;-73
2022/09/08 00:31:20;;;;;;;7.17;6.10;;;;;;;;;;5096008;28;20813;-73
2022/09/08 00:33:47;;;;;;;6.73;4.83;;;;;;;;;;5095737;28;20473;-73
2022/09/08 00:36:15;;;;;;;7.20;4.70;;;;;;;;;;5095967;28;20801;-73
2022/09/08 00:38:42;;;;;;;8.37;5.50;;;;;;;;;;5095760;28;20462;-73
2022/09/08 00:41:12;;;;;;;6.53;5.10;;;;;;;;;;5095370;28;20490;-73
2022/09/08 00:43:40;;;;;;;6.10;5.17;;;;;;;;;;5094506;28;20470;-73
2022/09/08 00:46:15;;;;;;;6.27;5.13;;;;;;;;;;5094382;28;20962;-73
2022/09/08 00:48:45;;;;;;;5.83;4.60;;;;;;;;;;5094423;28;20450;-73
2022/09/08 00:51:12;;;;;;;4.50;4.10;;;;;;;;;;5094462;28;20443;-73
2022/09/08 00:53:40;;;;;;;5.10;4.60;;;;;;;;;;5094169;28;20489;-73
2022/09/08 00:56:07;;;;;;;11.63;4.43;;;;;;;;;;5094755;28;20445;-73
2022/09/08 00:58:37;;;;;;;4.73;3.80;;;;;;;;;;5094913;28;20807;-73
2022/09/08 01:01:05;;;;;;;5.37;4.60;;;;;;;;;;5094027;28;20491;-73
2022/09/08 01:03:32;;;;;;;7.70;5.70;;;;;;;;;;5094223;28;20481;-73
2022/09/08 01:06:05;;;;;;;10.07;4.80;;;;;;;;;;5094323;28;20504;-73
2022/09/08 01:14:11;;;;;;;5.27;4.77;;;;;;;;;;5094468;28;20520;-73
2022/09/08 01:16:42;;;;;;;15.90;4.60;;;;;;;;;;5094806;28;20469;-73
2022/09/08 01:19:13;;;;;;;11.00;4.90;;;;;;;;;;5094831;28;20435;-73
2022/09/08 01:21:42;;;;;;;6.77;5.00;;;;;;;;;;5094323;28;20490;-73
2022/09/08 01:24:19;;;;;;;9.53;5.17;;;;;;;;;;5093925;28;20467;-73
2022/09/08 01:26:50;;;;;;;5.40;4.90;;;;;;;;;;5094098;28;20442;-73
2022/09/08 01:29:20;;;;;;;7.50;5.07;;;;;;;;;;5094047;28;20530;-73
2022/09/08 01:31:49;;;;;;;9.77;5.73;;;;;;;;;;5094419;28;20435;-73
2022/09/08 01:34:16;;;;;;;9.90;4.50;;;;;;;;;;5093844;28;20474;-73
2022/09/08 01:36:43;;;;;;;6.53;5.17;;;;;;;;;;5093722;28;20442;-73
2022/09/08 01:39:10;;;;;;;5.97;4.90;;;;;;;;;;5093919;28;20454;-73
2022/09/08 01:41:37;;;;;;;5.93;4.73;;;;;;;;;;5056700;28;1069566;-73
2022/09/08 01:44:05;;;;;;;5.33;4.80;;;;;;;;;;5094411;28;20228;-73
2022/09/08 01:46:34;;;;;;;11.03;5.10;;;;;;;;;;5094704;28;20469;-73
2022/09/08 01:49:01;;;;;;;5.97;4.30;;;;;;;;;;5095037;28;20824;-73
2022/09/08 01:51:28;;;;;;;9.10;5.40;;;;;;;;;;5094424;28;20443;-73
2022/09/08 01:53:55;;;;;;;9.63;5.60;;;;;;;;;;5094688;28;20470;-73
2022/09/08 01:56:22;;;;;;;8.47;5.63;;;;;;;;;;5095351;28;20558;-73
2022/09/08 01:58:50;;;;;;;7.80;6.03;;;;;;;;;;5095070;28;20474;-73
2022/09/08 02:01:17;;;;;;;6.90;5.60;;;;;;;;;;5094818;28;20482;-73
2022/09/08 02:03:45;;;;;;;10.43;6.70;;;;;;;;;;5094346;28;20462;-73
2022/09/08 02:06:12;;;;;;;7.00;5.90;;;;;;;;;;5094616;28;20458;-73
2022/09/08 02:08:39;;;;;;;7.03;6.23;;;;;;;;;;5094770;28;20951;-73
2022/09/08 02:11:07;;;;;;;10.57;6.07;;;;;;;;;;5093871;28;20455;-73
2022/09/08 02:13:34;;;;;;;6.50;5.87;;;;;;;;;;5094009;28;20486;-73
2022/09/08 02:16:02;;;;;;;6.30;5.13;;;;;;;;;;5094286;28;20454;-73
2022/09/08 02:18:30;;;;;;;7.10;6.47;;;;;;;;;;5094308;28;20455;-73
2022/09/08 02:21:07;;;;;;;13.70;9.27;;;;;;;;;;5094143;28;20515;-73
2022/09/08 02:23:34;;;;;;;8.23;6.10;;;;;;;;;;5093783;28;20531;-73
2022/09/08 02:26:01;;;;;;;6.23;5.63;;;;;;;;;;5094403;28;20453;-73
2022/09/08 02:28:28;;;;;;;6.50;5.50;;;;;;;;;;5094345;28;20817;-73
2022/09/08 02:30:58;;;;;;;6.67;5.90;;;;;;;;;;5093814;28;20450;-73
2022/09/08 02:33:26;;;;;;;8.00;6.23;;;;;;;;;;5093671;28;20544;-73
2022/09/08 02:35:53;;;;;;;8.90;6.17;;;;;;;;;;5094006;28;20852;-73
2022/09/08 02:38:22;;;;;;;6.90;5.87;;;;;;;;;;5093856;28;20900;-73
2022/09/08 02:40:49;;;;;;;12.07;9.40;;;;;;;;;;5093612;28;20450;-73
2022/09/08 02:43:17;;;;;;;10.53;7.17;;;;;;;;;;5093735;28;20541;-73
2022/09/08 02:45:46;;;;;;;11.87;7.63;;;;;;;;;;5093573;28;20454;-73
2022/09/08 02:48:13;;;;;;;11.23;7.70;;;;;;;;;;5094112;28;20961;-73
2022/09/08 02:50:40;;;;;;;11.60;7.30;;;;;;;;;;5093784;28;20767;-73
2022/09/08 02:53:07;;;;;;;9.40;7.40;;;;;;;;;;5093722;28;20457;-73
2022/09/08 02:55:38;;;;;;;10.20;6.93;;;;;;;;;;5093636;28;20450;-73
2022/09/08 02:58:06;;;;;;;8.07;7.30;;;;;;;;;;5093677;28;20455;-73
2022/09/08 03:00:34;;;;;;;9.80;8.40;;;;;;;;;;5093402;28;20458;-73
2022/09/08 03:03:01;;;;;;;12.00;7.17;;;;;;;;;;5093876;28;20827;-73
2022/09/08 03:05:28;;;;;;;10.03;8.20;;;;;;;;;;5092911;28;20479;-73
2022/09/08 03:07:55;;;;;;;7.50;6.80;;;;;;;;;;5092999;28;20473;-73
2022/09/08 03:10:23;;;;;;;7.80;6.13;;;;;;;;;;5093347;28;20885;-73
2022/09/08 03:12:51;;;;;;;12.40;7.00;;;;;;;;;;5093368;28;20454;-73
2022/09/08 03:15:19;;;;;;;7.67;5.80;;;;;;;;;;5093170;28;20467;-73
2022/09/08 03:17:46;;;;;;;8.57;5.57;;;;;;;;;;5093434;28;21017;-73
2022/09/08 03:20:14;;;;;;;14.63;6.27;;;;;;;;;;5093513;28;20461;-73
2022/09/08 03:22:41;;;;;;;9.40;6.30;;;;;;;;;;5093380;28;20483;-73
2022/09/08 03:25:08;;;;;;;14.03;6.97;;;;;;;;;;5093203;28;20470;-72
2022/09/08 03:27:36;;;;;;;6.83;6.13;;;;;;;;;;5093441;28;21036;-73
2022/09/08 03:30:05;;;;;;;7.93;5.70;;;;;;;;;;5093601;28;20431;-72
2022/09/08 03:32:33;;;;;;;8.77;6.43;;;;;;;;;;5093484;28;20547;-73
2022/09/08 03:35:01;;;;;;;8.00;5.40;;;;;;;;;;5092974;28;20479;-73
2022/09/08 03:37:28;;;;;;;8.50;6.03;;;;;;;;;;5092960;28;20465;-72
2022/09/08 03:39:55;;;;;;;10.67;5.73;;;;;;;;;;5093332;28;20454;-72
2022/09/08 03:42:23;;;;;;;11.30;6.33;;;;;;;;;;5092825;28;20494;-73
2022/09/08 03:44:50;;;;;;;9.50;5.63;;;;;;;;;;5092958;28;20470;-72
2022/09/08 03:47:18;;;;;;;7.20;5.77;;;;;;;;;;5093024;28;20537;-73
2022/09/08 03:49:46;;;;;;;9.87;5.53;;;;;;;;;;5093013;28;20826;-73
2022/09/08 03:52:13;;;;;;;6.10;4.60;;;;;;;;;;5092977;28;20455;-72
2022/09/08 03:54:50;;;;;;;6.10;5.50;;;;;;;;;;5092294;28;20486;-73
2022/09/08 03:57:19;;;;;;;10.30;5.30;;;;;;;;;;5092772;28;20529;-73
2022/09/08 03:59:46;;;;;;;9.47;5.30;;;;;;;;;;5093004;28;20461;-72
2022/09/08 04:02:14;;;;;;;7.07;5.20;;;;;;;;;;5092702;28;20483;-73
2022/09/08 04:04:43;;;;;;;6.17;4.97;;;;;;;;;;5092523;28;20478;-73
2022/09/08 04:07:10;;;;;;;6.13;5.53;;;;;;;;;;5092481;28;20462;-73
2022/09/08 04:09:37;;;;;;;8.67;4.80;;;;;;;;;;5092891;28;20450;-73
2022/09/08 04:12:05;;;;;;;9.90;6.17;;;;;;;;;;5092537;28;20454;-72
2022/09/08 04:14:33;;;;;;;8.90;6.53;;;;;;;;;;5092716;28;20570;-73
2022/09/08 04:17:00;;;;;;;9.07;5.17;;;;;;;;;;5092534;28;20455;-73
2022/09/08 04:19:28;;;;;;;8.83;5.90;;;;;;;;;;5093135;28;20951;-72
2022/09/08 04:21:56;;;;;;;5.20;4.70;;;;;;;;;;5093166;28;20493;-72
2022/09/08 04:24:23;;;;;;;10.50;5.60;;;;;;;;;;5092481;28;20466;-73
2022/09/08 04:26:50;;;;;;;6.20;5.63;;;;;;;;;;5092912;28;20465;-73
2022/09/08 04:29:18;;;;;;;6.03;5.53;;;;;;;;;;5092968;28;20458;-72
2022/09/08 04:31:46;;;;;;;8.70;6.03;;;;;;;;;;5092530;28;20854;-73
2022/09/08 04:34:14;;;;;;;9.00;6.20;;;;;;;;;;5092296;28;20544;-73
2022/09/08 04:36:41;;;;;;;8.47;7.67;;;;;;;;;;5096659;28;20970;-72
2022/09/08 04:39:10;;;;;;;10.10;8.10;;;;;;;;;;5096208;28;20528;-72
2022/09/08 04:41:37;;;;;;;6.07;5.50;;;;;;;;;;5096201;28;20492;-72
2022/09/08 04:44:06;;;;;;;10.47;5.90;;;;;;;;;;5096069;28;20478;-73
2022/09/08 04:46:34;;;;;;;7.83;5.67;;;;;;;;;;5096048;28;20463;-72
2022/09/08 04:49:01;;;;;;;6.03;5.43;;;;;;;;;;5095917;28;20450;-72
2022/09/08 04:51:30;;;;;;;6.70;6.00;;;;;;;;;;5095808;28;20458;-72
2022/09/08 04:53:57;;;;;;;11.87;6.07;;;;;;;;;;5095463;28;20467;-73
2022/09/08 04:56:26;;;;;;;10.50;5.60;;;;;;;;;;5096264;28;20450;-72
2022/09/08 04:58:54;;;;;;;6.50;5.90;;;;;;;;;;5095972;28;20927;-73
2022/09/08 05:01:23;;;;;;;6.50;5.90;;;;;;;;;;5095470;28;20451;-73
2022/09/08 05:03:52;;;;;;;7.37;6.30;;;;;;;;;;5095517;28;20561;-73
2022/09/08 05:06:19;;;;;;;6.33;5.73;;;;;;;;;;5095257;28;20458;-73
2022/09/08 05:08:48;;;;;;;6.90;6.20;;;;;;;;;;5095866;28;20451;-73
2022/09/08 05:11:15;;;;;;;7.67;5.80;;;;;;;;;;5095843;28;21012;-72
2022/09/08 05:13:44;;;;;;;7.63;6.93;;;;;;;;;;5095273;28;20828;-73
2022/09/08 05:16:12;;;;;;;9.17;6.47;;;;;;;;;;5095735;28;20548;-72
2022/09/08 05:18:39;;;;;;;10.00;7.63;;;;;;;;;;5095356;28;20447;-72
2022/09/08 05:21:07;;;;;;;15.73;10.07;;;;;;;;;;5095846;28;20455;-73
2022/09/08 05:23:34;;;;;;;9.80;6.00;;;;;;;;;;5094937;28;20494;-73
2022/09/08 05:26:03;;;;;;;5.83;5.20;;;;;;;;;;5094905;28;20443;-73
2022/09/08 05:28:31;;;;;;;7.43;5.60;;;;;;;;;;5095465;28;20869;-73
2022/09/08 05:31:01;;;;;;;9.20;5.33;;;;;;;;;;5095055;28;20443;-73
2022/09/08 05:33:28;;;;;;;7.90;6.17;;;;;;;;;;5095108;28;20446;-73
2022/09/08 05:35:55;;;;;;;6.83;6.13;;;;;;;;;;5095003;28;20511;-73
2022/09/08 05:38:22;;;;;;;8.60;5.67;;;;;;;;;;5095163;28;20447;-73
2022/09/08 05:40:49;;;;;;;7.80;7.00;;;;;;;;;;5095318;28;20450;-72
2022/09/08 05:43:17;;;;;;;9.10;7.37;;;;;;;;;;5095080;28;20501;-73
2022/09/08 05:45:45;;;;;;;7.67;6.20;;;;;;;;;;5094474;28;20458;-73
2022/09/08 05:48:13;;;;;;;9.67;7.00;;;;;;;;;;5094121;28;20500;-72
2022/09/08 05:50:42;;;;;;;17.30;6.53;;;;;;;;;;5095145;28;20443;-72
2022/09/08 05:53:10;;;;;;;7.07;6.40;;;;;;;;;;5094638;28;20453;-72
2022/09/08 05:55:37;;;;;;;8.30;7.07;;;;;;;;;;5094429;28;20454;-72
2022/09/08 05:58:04;;;;;;;8.30;6.67;;;;;;;;;;5095173;28;20826;-72
2022/09/08 06:00:32;;;;;;;9.17;6.47;;;;;;;;;;5094800;28;20458;-72
2022/09/08 06:02:59;;;;;;;8.30;6.60;;;;;;;;;;5094804;28;20516;-72
2022/09/08 06:05:27;;;;;;;9.97;7.73;;;;;;;;;;5094114;28;20529;-73
2022/09/08 06:07:54;;;;;;;7.93;6.13;;;;;;;;;;5094079;28;20450;-72
2022/09/08 06:10:22;;;;;;;7.70;6.90;;;;;;;;;;5095350;28;20804;-72
2022/09/08 06:12:50;;;;;;;9.73;7.30;;;;;;;;;;5094498;28;20794;-73
2022/09/08 06:15:17;;;;;;;6.33;5.70;;;;;;;;;;5093787;28;20482;-73
2022/09/08 06:17:44;;;;;;;9.43;6.10;;;;;;;;;;5094498;28;20462;-73
2022/09/08 06:20:11;;;;;;;5.73;5.13;;;;;;;;;;5094455;28;20450;-72
2022/09/08 06:22:40;;;;;;;9.20;5.60;;;;;;;;;;5094110;28;20831;-72
2022/09/08 06:25:07;;;;;;;8.00;5.90;;;;;;;;;;5094223;28;20475;-73
2022/09/08 06:27:40;;;;;;;5.80;5.17;;;;;;;;;;5093989;28;20837;-72
2022/09/08 06:30:10;;;;;;;10.53;6.00;;;;;;;;;;5094483;28;20431;-72
2022/09/08 06:32:39;;;;;;;6.00;5.40;;;;;;;;;;5094224;28;20431;-73
2022/09/08 06:35:08;;;;;;;9.90;5.53;;;;;;;;;;5094096;28;20471;-72
2022/09/08 06:37:40;;;;;;;5.33;4.80;;;;;;;;;;5094021;28;20457;-72
2022/09/08 06:40:12;;;;;;;6.70;5.20;;;;;;;;;;5094057;28;20445;-72
2022/09/08 06:42:45;;;;;;;5.87;5.27;;;;;;;;;;5093795;28;20500;-73
2022/09/08 06:45:17;;;;;;;8.23;4.63;;;;;;;;;;5093702;28;20482;-72
2022/09/08 06:47:46;;;;;;;6.27;5.00;;;;;;;;;;5094119;28;20454;-73
2022/09/08 06:50:14;;;;;;;6.00;4.90;;;;;;;;;;5094086;28;20435;-72
2022/09/08 06:52:45;;;;;;;10.53;5.53;;;;;;;;;;5093811;28;20443;-72
2022/09/08 06:55:18;;;;;;;5.83;4.27;;;;;;;;;;5093825;28;20473;-72
2022/09/08 06:57:49;;;;;;;5.20;4.30;;;;;;;;;;5093466;28;20960;-72
2022/09/08 07:00:19;;;;;;;5.50;3.73;;;;;;;;;;5093622;28;20489;-72
2022/09/08 07:03:01;;;;;;;4.50;3.20;;;;;;;;;;5093783;28;20912;-73
2022/09/08 07:05:38;;;;;;;3.50;2.67;;;;;;;;;;5093564;28;20477;-72
2022/09/08 07:08:08;;;;;;;4.90;3.20;;;;;;;;;;5093440;28;20880;-72
2022/09/08 07:10:41;;;;;;;5.80;3.00;;;;;;;;;;5093638;28;20453;-72
2022/09/08 07:13:14;;;;;;;7.77;3.53;;;;;;;;;;5093472;28;20939;-72
2022/09/08 07:15:48;;;;;;;2.93;2.70;;;;;;;;;;5093145;28;20451;-73
2022/09/08 07:18:20;;;;;;;6.90;2.90;;;;;;;;;;5093631;28;20449;-72
2022/09/08 07:20:47;;;;;;;3.17;2.37;;;;;;;;;;5093571;28;20463;-72
2022/09/08 07:23:16;;;;;;;4.10;2.30;;;;;;;;;;5093384;28;20487;-72
2022/09/08 07:25:47;;;;;;;3.40;2.40;;;;;;;;;;5093167;28;20451;-72
2022/09/08 07:28:18;;;;;;;3.13;2.00;;;;;;;;;;5093706;28;20446;-72
2022/09/08 07:30:47;;;;;;;2.83;2.23;;;;;;;;;;5093691;28;20936;-72
2022/09/08 07:33:17;;;;;;;4.50;2.30;;;;;;;;;;5093203;28;20450;-72
2022/09/08 07:35:47;;;;;;;3.30;2.13;;;;;;;;;;5093312;28;20934;-72
2022/09/08 07:38:16;;;;;;;4.50;2.97;;;;;;;;;;5093270;28;20442;-72
2022/09/08 07:40:46;;;;;;;7.97;3.47;;;;;;;;;;5093411;28;20579;-72
2022/09/08 07:43:15;;;;;;;3.97;2.73;;;;;;;;;;5093147;28;20487;-72
2022/09/08 07:45:46;;;;;;;3.63;2.50;;;;;;;;;;5093174;28;20454;-72
2022/09/08 07:48:20;;;;;;;5.70;2.30;;;;;;;;;;5093204;28;20450;-72
2022/09/08 07:50:55;;;;;;;5.20;2.23;;;;;;;;;;5093623;28;20438;-72
2022/09/08 07:53:32;;;;;;;6.67;3.30;;;;;;;;;;5093348;28;20430;-72
2022/09/08 07:56:05;;;;;;;3.80;2.07;;;;;;;;;;5093354;28;20435;-73
2022/09/08 07:58:38;;;;;;;2.10;1.90;;;;;;;;;;5093492;28;20451;-72
2022/09/08 08:01:09;;;;;;;1.97;1.50;;;;;;;;;;5093210;28;20450;-72
2022/09/08 08:03:45;;;;;;;1.80;1.60;;;;;;;;;;5092529;28;21021;-73
2022/09/08 08:06:15;;;;;;;3.47;1.90;;;;;;;;;;5092503;28;20518;-73
2022/09/08 08:08:51;;;;;;;2.17;1.60;;;;;;;;;;5092580;28;20442;-72
2022/09/08 08:11:22;;;;;;;3.97;2.47;;;;;;;;;;5096339;28;20892;-72
2022/09/08 08:14:06;;;;;;;5.67;1.90;;;;;;;;;;5096191;28;20466;-73
2022/09/08 08:16:38;;;;;;;2.60;1.90;;;;;;;;;;5096547;28;20816;-73
2022/09/08 08:19:12;;;;;;;2.40;1.40;;;;;;;;;;5096486;28;20455;-73
2022/09/08 08:21:43;;;;;;;2.20;1.50;;;;;;;;;;5096901;28;20454;-72
2022/09/08 08:24:16;;;;;;;2.17;1.37;;;;;;;;;;5095907;28;20497;-73
2022/09/08 08:26:50;;;;;;;2.13;1.37;;;;;;;;;;5096637;28;20454;-73
2022/09/08 08:29:39;;;;;;;4.40;1.30;;;;;;;;;;5096813;28;20441;-73
2022/09/08 08:32:10;;;;;;;2.93;1.30;;;;;;;;;;5096860;28;20476;-72
2022/09/08 08:34:41;;;;;;;1.50;1.20;;;;;;;;;;5096069;28;20466;-72
2022/09/08 08:37:10;;;;;;;1.80;1.30;;;;;;;;;;5096395;28;20458;-73
2022/09/08 08:39:38;;;;;;;1.53;1.30;;;;;;;;;;5096315;28;20458;-73
2022/09/08 08:42:11;;;;;;;1.93;1.43;;;;;;;;;;5096126;28;20463;-73
2022/09/08 08:44:52;;;;;;;1.90;1.30;;;;;;;;;;5095734;28;20490;-73
2022/09/08 08:47:31;;;;;;;1.80;1.30;;;;;;;;;;5095827;28;20450;-73
2022/09/08 08:50:13;;;;;;;5.83;1.40;;;;;;;;;;5096032;28;20446;-73
2022/09/08 08:52:51;;;;;;;1.93;1.47;;;;;;;;;;5095537;28;20468;-73
2022/09/08 08:55:27;;;;;;;2.53;1.37;;;;;;;;;;5095240;28;20477;-73
2022/09/08 08:58:01;;;;;;;2.07;1.20;;;;;;;;;;5095908;28;20904;-73
2022/09/08 09:00:34;;;;;;;4.50;1.90;;;;;;;;;;5095432;28;20447;-74
2022/09/08 09:03:19;;;;;;;2.00;1.40;;;;;;;;;;5095599;28;20990;-74
2022/09/08 09:06:01;;;;;;;4.17;1.20;;;;;;;;;;5095000;28;20446;-74
2022/09/08 09:08:38;;;;;;;3.20;1.60;;;;;;;;;;5093119;28;20838;-74
2022/09/08 09:11:13;;;;;;;2.40;1.50;;;;;;;;;;5095330;28;20454;-74
2022/09/08 09:13:54;;;;;;;2.77;1.63;;;;;;;;;;5094792;28;20470;-74
2022/09/08 09:16:33;;;;;;;2.30;2.10;;;;;;;;;;5094982;28;20450;-74
2022/09/08 09:19:19;;;;;;;1.37;0.93;;;;;;;;;;5094988;28;20556;-74
2022/09/08 09:21:51;;;;;;;3.60;2.50;;;;;;;;;;5094562;28;20932;-74
2022/09/08 09:24:30;;;;;;;2.53;1.23;;;;;;;;;;5094731;28;20487;-74
2022/09/08 09:26:58;;;;;;;1.60;1.30;;;;;;;;;;5095018;28;20469;-74
2022/09/08 09:29:27;;;;;;;1.67;1.33;;;;;;;;;;5094870;28;20451;-74
2022/09/08 09:32:05;;;;;;;2.00;1.30;;;;;;;;;;5095009;28;20466;-73
2022/09/08 09:34:45;;;;;;;2.27;1.50;;;;;;;;;;5094749;28;20553;-73
2022/09/08 09:37:23;;;;;;;2.77;1.40;;;;;;;;;;5095164;28;20434;-73
2022/09/08 09:39:57;;;;;;;1.87;1.50;;;;;;;;;;5094877;28;20450;-73
2022/09/08 09:42:35;;;;;;;2.00;1.37;;;;;;;;;;5094788;28;20501;-73
2022/09/08 09:45:14;;;;;;;2.10;1.57;;;;;;;;;;5094593;28;20502;-73
2022/09/08 09:47:51;;;;;;;2.30;2.10;;;;;;;;;;5095060;28;20431;-73
2022/09/08 09:50:31;;;;;;;1.93;1.50;;;;;;;;;;5095414;28;20438;-73
2022/09/08 09:53:04;;;;;;;2.73;1.97;;;;;;;;;;5094471;28;20452;-73
2022/09/08 09:55:41;;;;;;;2.63;2.23;;;;;;;;;;5094150;28;20471;-73
2022/09/08 09:58:26;;;;;;;2.53;1.80;;;;;;;;;;5094422;28;20446;-73
2022/09/08 10:01:11;;;;;;;2.10;1.77;;;;;;;;;;5094971;28;20815;-73
2022/09/08 10:03:53;;;;;;;3.83;1.90;;;;;;;;;;5093699;28;21023;-73
2022/09/08 10:06:32;;;;;;;7.60;3.10;;;;;;;;;;5091375;28;20455;-73
2022/09/08 10:09:10;;;;;;;5.30;1.80;;;;;;;;;;5094342;28;20434;-73
2022/09/08 10:11:55;;;;;;;2.53;2.10;;;;;;;;;;5094866;28;20430;-73
2022/09/08 10:14:44;;;;;;;3.30;1.77;;;;;;;;;;5063253;28;20471;-73
2022/09/08 10:17:31;;;;;;;3.50;1.87;;;;;;;;;;5094512;28;20435;-73
2022/09/08 10:20:16;;;;;;;4.20;2.43;;;;;;;;;;5094383;28;20439;-73
2022/09/08 10:22:57;;;;;;;1.77;1.33;;;;;;;;;;5094587;28;20431;-73
2022/09/08 10:25:52;;;;;;;1.60;1.10;;;;;;;;;;5093827;28;20490;-73
2022/09/08 10:28:28;;;;;;;2.93;1.80;;;;;;;;;;5094419;28;20799;-73
2022/09/08 10:31:10;;;;;;;3.00;1.77;;;;;;;;;;5094637;28;20784;-73
2022/09/08 10:33:55;;;;;;;5.13;2.23;;;;;;;;;;5059756;28;20463;-73
2022/09/08 10:36:29;;;;;;;2.20;1.47;;;;;;;;;;5094500;28;20457;-73
2022/09/08 10:39:07;;;;;;;1.50;1.20;;;;;;;;;;5094344;28;20820;-73
2022/09/08 10:42:03;;;;;;;8.30;1.50;;;;;;;;;;5094017;28;20943;-73
2022/09/08 10:44:49;;;;;;;3.40;1.37;;;;;;;;;;5094386;28;20498;-73
2022/09/08 10:47:39;;;;;;;3.13;1.13;;;;;;;;;;5093952;28;20458;-73
2022/09/08 10:50:14;;;;;;;1.80;1.50;;;;;;;;;;5094317;28;20497;-73
2022/09/08 10:52:50;;;;;;;1.90;1.30;;;;;;;;;;5093740;28;20455;-73
2022/09/08 10:55:28;;;;;;;4.73;1.23;;;;;;;;;;5093893;28;20470;-73
2022/09/08 10:58:02;;;;;;;1.40;1.10;;;;;;;;;;5093654;28;20481;-73
2022/09/08 11:00:32;;;;;;;2.27;1.20;;;;;;;;;;5093077;28;20443;-74
2022/09/08 11:03:10;;;;;;;2.70;1.20;;;;;;;;;;5093340;28;20454;-74
2022/09/08 11:05:49;;;;;;;1.73;1.50;;;;;;;;;;5093101;28;20979;-74
2022/09/08 11:08:37;;;;;;;1.73;1.00;;;;;;;;;;5092752;28;20892;-73
2022/09/08 11:11:18;;;;;;;2.27;1.30;;;;;;;;;;5092965;28;20453;-73
2022/09/08 11:13:47;;;;;;;2.13;1.47;;;;;;;;;;5092784;28;20471;-74
2022/09/08 11:16:23;;;;;;;1.70;1.23;;;;;;;;;;5093155;28;20475;-73
2022/09/08 11:18:55;;;;;;;1.70;1.07;;;;;;;;;;5092965;28;20450;-73
2022/09/08 11:21:25;;;;;;;2.90;1.17;;;;;;;;;;5092692;28;20458;-73
2022/09/08 11:24:00;;;;;;;1.40;1.10;;;;;;;;;;5092932;28;20536;-74
2022/09/08 11:26:35;;;;;;;1.93;1.13;;;;;;;;;;5092835;28;20944;-73
2022/09/08 11:29:09;;;;;;;1.60;1.20;;;;;;;;;;5092919;28;20935;-73
2022/09/08 11:31:41;;;;;;;1.37;1.03;;;;;;;;;;5092617;28;20465;-73
2022/09/08 11:34:23;;;;;;;4.60;1.40;;;;;;;;;;5092487;28;21029;-73
2022/09/08 11:37:02;;;;;;;1.40;1.10;;;;;;;;;;5080106;28;20466;-73
2022/09/08 11:39:40;;;;;;;1.70;1.00;;;;;;;;;;5093174;28;20900;-73
2022/09/08 11:42:18;;;;;;;6.50;1.10;;;;;;;;;;5092785;28;20458;-73
2022/09/08 11:44:50;;;;;;;1.80;1.30;;;;;;;;;;5094903;28;20497;-73
2022/09/08 11:47:34;;;;;;;3.63;1.20;;;;;;;;;;5096670;28;20451;-73
2022/09/08 11:50:17;;;;;;;1.20;0.80;;;;;;;;;;5096867;28;20458;-73
2022/09/08 11:52:57;;;;;;;3.57;1.10;;;;;;;;;;5084306;28;20462;-73
2022/09/08 11:55:36;;;;;;;1.43;1.10;;;;;;;;;;5096375;28;20947;-73
2022/09/08 11:58:12;;;;;;;1.67;1.10;;;;;;;;;;5096685;28;20457;-73
2022/09/08 12:00:48;;;;;;;1.90;0.90;;;;;;;;;;5096796;28;20442;-73
2022/09/08 12:03:24;;;;;;;1.57;1.23;;;;;;;;;;5096517;28;20791;-73
2022/09/08 12:06:14;;;;;;;4.13;1.30;;;;;;;;;;5096545;28;20577;-73
2022/09/08 12:08:50;;;;;;;1.97;1.30;;;;;;;;;;5096406;28;20458;-73
2022/09/08 12:11:23;;;;;;;1.87;1.40;;;;;;;;;;5096373;28;20868;-73
2022/09/08 12:13:54;;;;;;;1.93;1.50;;;;;;;;;;5096192;28;20473;-73
2022/09/08 12:16:31;;;;;;;1.50;1.10;;;;;;;;;;5096735;28;20431;-73
2022/09/08 12:19:07;;;;;;;1.30;1.00;;;;;;;;;;5096704;28;20927;-73
2022/09/08 12:21:50;;;;;;;1.70;1.10;;;;;;;;;;5096214;28;20435;-73
2022/09/08 12:24:27;;;;;;;1.50;1.10;;;;;;;;;;5095929;28;20490;-73
2022/09/08 12:26:58;;;;;;;1.87;1.37;;;;;;;;;;5096048;28;20449;-73
2022/09/08 12:29:40;;;;;;;1.50;1.00;;;;;;;;;;5095853;28;20943;-73
2022/09/08 12:32:15;;;;;;;1.60;1.20;;;;;;;;;;5093728;28;20455;-73
2022/09/08 12:35:00;;;;;;;1.67;1.27;;;;;;;;;;5095945;28;20824;-73
2022/09/08 12:37:34;;;;;;;1.70;1.10;;;;;;;;;;5085677;28;20550;-73
2022/09/08 12:40:18;;;;;;;1.57;1.17;;;;;;;;;;5096027;28;20450;-73
2022/09/08 12:42:52;;;;;;;1.30;0.90;;;;;;;;;;5095937;28;20454;-73
2022/09/08 12:45:27;;;;;;;1.50;1.17;;;;;;;;;;5095990;28;20501;-73
2022/09/08 12:48:00;;;;;;;2.00;1.10;;;;;;;;;;5095988;28;20470;-73
2022/09/08 12:50:36;;;;;;;1.47;1.13;;;;;;;;;;5096234;28;20860;-73
2022/09/08 12:53:10;;;;;;;3.87;1.10;;;;;;;;;;5096199;28;20534;-73
2022/09/08 12:55:41;;;;;;;1.90;1.10;;;;;;;;;;5095127;28;20797;-73
2022/09/08 12:58:08;;;;;;;2.10;1.30;;;;;;;;;;5095936;28;20451;-73
2022/09/08 13:00:37;;;;;;;2.27;1.23;;;;;;;;;;5095939;28;20462;-73
2022/09/08 13:03:14;;;;;;;1.60;1.30;;;;;;;;;;5095782;28;20459;-73
2022/09/08 13:05:52;;;;;;;1.70;1.10;;;;;;;;;;5095625;28;20462;-73
2022/09/08 13:08:27;;;;;;;1.73;1.30;;;;;;;;;;5095104;28;20457;-73
2022/09/08 13:10:58;;;;;;;3.13;1.40;;;;;;;;;;5095496;28;20449;-73
2022/09/08 13:13:36;;;;;;;1.67;1.30;;;;;;;;;;5095117;28;20765;-73
2022/09/08 13:16:13;;;;;;;1.50;0.90;;;;;;;;;;5095608;28;20940;-73
2022/09/08 13:18:46;;;;;;;5.67;1.10;;;;;;;;;;5095543;28;20445;-73
2022/09/08 13:21:15;;;;;;;1.50;1.20;;;;;;;;;;5095652;28;20803;-73
2022/09/08 13:23:49;;;;;;;1.50;1.10;;;;;;;;;;5095390;28;20494;-73
2022/09/08 13:26:34;;;;;;;1.57;1.00;;;;;;;;;;5095243;28;20483;-72
2022/09/08 13:29:12;;;;;;;1.60;1.20;;;;;;;;;;5095429;28;20451;-72
2022/09/08 13:31:44;;;;;;;1.30;0.93;;;;;;;;;;5095422;28;20446;-73
2022/09/08 13:34:42;;;;;;;1.63;1.30;;;;;;;;;;5095040;28;20474;-73
2022/09/08 13:37:13;;;;;;;2.07;1.83;;;;;;;;;;5032836;28;20442;-72
2022/09/08 13:39:58;;;;;;;2.70;1.10;;;;;;;;;;5081918;28;20477;-73
2022/09/08 13:42:31;;;;;;;2.83;1.23;;;;;;;;;;5084772;28;20458;-73
2022/09/08 13:45:07;;;;;;;1.90;1.57;;;;;;;;;;5094738;28;20999;-73
2022/09/08 13:47:54;;;;;;;2.27;1.13;;;;;;;;;;5094793;28;20439;-73
2022/09/08 13:50:33;;;;;;;7.27;1.80;;;;;;;;;;5094584;28;20447;-73
2022/09/08 13:53:08;;;;;;;3.03;1.10;;;;;;;;;;5094651;28;20824;-73
2022/09/08 13:55:50;;;;;;;1.83;1.17;;;;;;;;;;5093991;28;20466;-73
2022/09/08 13:58:37;;;;;;;1.97;1.37;;;;;;;;;;5094804;28;20435;-73
2022/09/08 14:01:10;;;;;;;1.80;1.20;;;;;;;;;;5094287;28;20458;-73
2022/09/08 14:03:41;;;;;;;1.50;0.90;;;;;;;;;;5094864;28;20475;-73
2022/09/08 14:06:10;;;;;;;1.67;1.20;;;;;;;;;;5093855;28;20474;-73
2022/09/08 14:08:46;;;;;;;1.83;1.20;;;;;;;;;;5093241;28;21000;-73
2022/09/08 14:11:21;;;;;;;1.43;0.93;;;;;;;;;;5094457;28;20439;-73
2022/09/08 14:13:48;;;;;;;1.40;1.03;;;;;;;;;;5093810;28;20466;-73
2022/09/08 14:16:26;;;;;;;1.40;1.10;;;;;;;;;;5094066;28;20966;-73
2022/09/08 14:19:08;;;;;;;2.67;1.27;;;;;;;;;;5093963;28;20458;-73
2022/09/08 14:21:37;;;;;;;1.53;1.10;;;;;;;;;;5081540;28;20524;-73
2022/09/08 14:24:12;;;;;;;1.80;1.60;;;;;;;;;;5093775;28;20466;-73
2022/09/08 14:26:45;;;;;;;5.03;1.17;;;;;;;;;;5094201;28;20971;-73
2022/09/08 14:29:16;;;;;;;1.50;1.00;;;;;;;;;;5094283;28;20821;-73
2022/09/08 14:31:47;;;;;;;2.60;1.20;;;;;;;;;;5093815;28;20462;-73
2022/09/08 14:34:19;;;;;;;1.37;0.97;;;;;;;;;;5093930;28;20960;-72
2022/09/08 14:36:53;;;;;;;1.30;0.90;;;;;;;;;;5094195;28;20435;-73
2022/09/08 14:39:25;;;;;;;2.20;1.10;;;;;;;;;;5093878;28;20446;-73
2022/09/08 14:41:53;;;;;;;1.30;1.00;;;;;;;;;;5093879;28;20944;-73
2022/09/08 14:44:36;;;;;;;4.60;1.10;;;;;;;;;;5093430;28;20529;-73
2022/09/08 14:47:05;;;;;;;1.60;1.07;;;;;;;;;;5093939;28;20490;-73
2022/09/08 14:49:42;;;;;;;2.27;1.30;;;;;;;;;;5093691;28;20443;-73
2022/09/08 14:52:15;;;;;;;1.50;1.20;;;;;;;;;;5093882;28;20450;-73
2022/09/08 14:54:50;;;;;;;2.10;1.63;;;;;;;;;;5093514;28;20477;-72
2022/09/08 14:57:24;;;;;;;1.73;1.20;;;;;;;;;;5093688;28;20435;-72
2022/09/08 15:00:03;;;;;;;1.93;1.20;;;;;;;;;;5093526;28;20438;-73
2022/09/08 15:02:31;;;;;;;2.10;1.57;;;;;;;;;;5093761;28;20435;-73
2022/09/08 15:05:07;;;;;;;2.17;1.50;;;;;;;;;;5092933;28;20491;-72
2022/09/08 15:07:36;;;;;;;1.90;1.50;;;;;;;;;;5093073;28;20451;-73
2022/09/08 15:10:06;;;;;;;3.63;2.57;;;;;;;;;;5093902;28;20970;-72
2022/09/08 15:12:35;;;;;;;2.27;2.07;;;;;;;;;;5093690;28;20451;-72
2022/09/08 15:15:12;;;;;;;2.00;1.50;;;;;;;;;;5093123;28;20465;-72
2022/09/08 15:17:41;;;;;;;1.87;1.30;;;;;;;;;;5093714;28;20438;-72